createdAt,value
2022-09-12T00:01:56.878Z,0.60
2022-09-12T00:04:48.067Z,0.60
2022-09-12T00:07:35.617Z,0.60
2022-09-12T00:10:22.367Z,0.40
2022-09-12T00:13:09.683Z,0.60
2022-09-12T00:15:56.610Z,0.77
2022-09-12T00:18:44.890Z,0.50
2022-09-12T00:21:36.729Z,0.50
2022-09-12T00:24:23.818Z,0.70
2022-09-12T00:27:10.735Z,0.77
2022-09-12T00:29:57.770Z,0.65
2022-09-12T00:32:44.820Z,0.65
2022-09-12T00:35:32.063Z,0.70
2022-09-12T00:38:20.778Z,0.65
2022-09-12T00:41:07.780Z,0.98
2022-09-12T00:43:55.445Z,0.57
2022-09-12T00:46:43.927Z,0.63
2022-09-12T00:49:32.903Z,0.80
2022-09-12T00:52:26.498Z,0.60
2022-09-12T00:55:18.481Z,0.85
2022-09-12T00:58:08.467Z,0.50
2022-09-12T01:00:55.524Z,0.65
2022-09-12T01:03:42.746Z,0.63
2022-09-12T01:06:31.431Z,0.70
2022-09-12T01:09:19.717Z,0.80
2022-09-12T01:12:08.199Z,0.70
2022-09-12T01:14:59.313Z,0.80
2022-09-12T01:17:53.057Z,0.50
2022-09-12T01:20:55.321Z,0.80
2022-09-12T01:24:12.357Z,0.60
2022-09-12T01:27:14.629Z,1.00
2022-09-12T01:30:16.604Z,0.63
2022-09-12T01:33:22.003Z,1.00
2022-09-12T01:36:17.143Z,0.77
2022-09-12T01:39:05.452Z,0.90
2022-09-12T01:41:56.240Z,0.82
2022-09-12T01:44:48.608Z,0.63
2022-09-12T01:47:41.787Z,0.73
2022-09-12T01:50:29.934Z,0.82
2022-09-12T01:53:20.942Z,0.75
2022-09-12T01:56:10.317Z,0.60
2022-09-12T01:59:00.206Z,0.70
2022-09-12T02:01:48.811Z,0.80
2022-09-12T02:04:38.619Z,0.80
2022-09-12T02:07:29.230Z,0.85
2022-09-12T02:10:19.307Z,0.90
2022-09-12T02:13:08.841Z,0.50
2022-09-12T02:15:58.272Z,0.90
2022-09-12T02:18:46.697Z,0.67
2022-09-12T02:21:33.840Z,0.80
2022-09-12T02:24:22.590Z,1.10
2022-09-12T02:27:13.495Z,0.90
2022-09-12T02:30:00.781Z,0.80
2022-09-12T02:32:58.089Z,0.82
2022-09-12T02:35:48.550Z,0.90
2022-09-12T02:38:39.784Z,1.00
2022-09-12T02:41:26.687Z,1.40
2022-09-12T02:44:14.839Z,0.70
2022-09-12T02:47:03.595Z,0.80
2022-09-12T02:49:50.819Z,0.80
2022-09-12T02:52:37.629Z,0.93
2022-09-12T02:55:25.197Z,0.55
2022-09-12T02:58:13.831Z,1.10
2022-09-12T03:01:05.469Z,0.82
2022-09-12T03:03:58.744Z,0.90
2022-09-12T03:06:51.589Z,0.85
2022-09-12T03:09:41.007Z,0.90
2022-09-12T03:12:40.287Z,0.70
2022-09-12T03:15:37.432Z,0.90
2022-09-12T03:18:30.111Z,1.30
2022-09-12T03:21:21.169Z,1.00
2022-09-12T03:24:13.254Z,1.00
2022-09-12T03:27:03.547Z,1.27
2022-09-12T03:29:51.328Z,1.20
2022-09-12T03:32:45.900Z,0.95
2022-09-12T03:35:34.249Z,0.85
2022-09-12T03:38:21.489Z,0.93
2022-09-12T03:41:08.361Z,1.27
2022-09-12T03:43:57.163Z,1.05
2022-09-12T03:46:44.766Z,1.13
2022-09-12T03:49:31.989Z,0.90
2022-09-12T03:52:20.364Z,1.17
2022-09-12T03:55:10.518Z,1.52
2022-09-12T03:57:57.834Z,1.52
2022-09-12T04:00:44.565Z,1.23
2022-09-12T04:03:31.700Z,0.98
2022-09-12T04:06:20.101Z,0.95
2022-09-12T04:09:10.548Z,0.88
2022-09-12T04:11:57.542Z,1.20
2022-09-12T04:14:44.786Z,0.90
2022-09-12T04:17:31.983Z,1.30
2022-09-12T04:20:19.152Z,0.90
2022-09-12T04:23:06.028Z,1.10
2022-09-12T04:25:56.947Z,1.02
2022-09-12T04:28:44.249Z,1.08
2022-09-12T04:31:31.212Z,1.38
2022-09-12T04:34:18.146Z,1.10
2022-09-12T04:37:05.269Z,0.90
2022-09-12T04:39:57.774Z,1.10
2022-09-12T04:42:46.287Z,1.13
2022-09-12T04:45:33.361Z,1.38
2022-09-12T04:48:20.462Z,1.23
2022-09-12T04:51:11.087Z,1.20
2022-09-12T04:53:59.408Z,1.13
2022-09-12T04:56:47.240Z,1.15
2022-09-12T04:59:35.415Z,1.30
2022-09-12T05:02:22.596Z,0.80
2022-09-12T05:05:13.587Z,0.88
2022-09-12T05:08:00.492Z,1.05
2022-09-12T05:10:47.489Z,1.17
2022-09-12T05:13:34.861Z,1.40
2022-09-12T05:16:23.920Z,1.13
2022-09-12T05:19:12.673Z,0.90
2022-09-12T05:21:59.783Z,1.30
2022-09-12T05:24:50.408Z,1.00
2022-09-12T05:27:37.810Z,1.17
2022-09-12T05:30:24.787Z,1.45
2022-09-12T05:33:13.558Z,1.00
2022-09-12T05:36:00.865Z,0.80
2022-09-12T05:38:47.973Z,0.93
2022-09-12T05:41:37.147Z,1.40
2022-09-12T05:44:24.875Z,1.15
2022-09-12T05:47:13.420Z,1.17
2022-09-12T05:50:01.626Z,1.38
2022-09-12T05:52:48.582Z,2.70
2022-09-12T05:55:35.530Z,1.90
2022-09-12T05:58:23.102Z,1.50
2022-09-12T06:01:12.317Z,1.40
2022-09-12T06:04:01.498Z,1.52
2022-09-12T06:06:50.189Z,1.75
2022-09-12T06:09:39.237Z,1.17
2022-09-12T06:12:26.751Z,1.77
2022-09-12T06:15:14.555Z,0.98
2022-09-12T06:18:01.577Z,1.00
2022-09-12T06:20:50.251Z,1.08
2022-09-12T06:23:41.770Z,1.38
2022-09-12T06:26:31.794Z,1.30
2022-09-12T06:29:19.380Z,1.63
2022-09-12T06:32:07.223Z,1.50
2022-09-12T06:34:54.123Z,1.55
2022-09-12T06:37:41.702Z,1.88
2022-09-12T06:40:30.352Z,1.30
2022-09-12T06:43:17.524Z,1.90
2022-09-12T06:46:05.074Z,1.38
2022-09-12T06:48:52.142Z,1.75
2022-09-12T06:51:39.386Z,1.45
2022-09-12T06:54:27.123Z,2.00
2022-09-12T06:57:15.446Z,1.17
2022-09-12T07:00:02.284Z,1.23
2022-09-12T07:02:55.291Z,1.55
2022-09-12T07:05:42.774Z,1.70
2022-09-12T07:08:31.822Z,2.05
2022-09-12T07:11:20.429Z,1.90
2022-09-12T07:14:09.878Z,2.05
2022-09-12T07:16:56.846Z,2.13
2022-09-12T07:19:44.449Z,1.88
2022-09-12T07:22:31.504Z,1.80
2022-09-12T07:25:21.241Z,1.40
2022-09-12T07:28:08.366Z,1.00
2022-09-12T07:30:56.932Z,1.20
2022-09-12T07:33:45.073Z,1.43
2022-09-12T07:36:32.124Z,1.73
2022-09-12T07:39:20.051Z,1.67
2022-09-12T07:42:07.914Z,1.83
2022-09-12T07:44:55.100Z,2.65
2022-09-12T07:47:44.213Z,2.90
2022-09-12T07:50:30.914Z,3.37
2022-09-12T07:53:17.821Z,3.20
2022-09-12T07:56:05.561Z,2.28
2022-09-12T07:58:53.069Z,3.25
2022-09-12T08:01:41.508Z,2.97
2022-09-12T08:04:30.412Z,3.17
2022-09-12T08:07:19.405Z,4.85
2022-09-12T08:10:06.709Z,4.03
2022-09-12T08:12:56.143Z,4.57
2022-09-12T08:15:43.179Z,4.70
2022-09-12T08:18:30.842Z,3.13
2022-09-12T08:21:20.268Z,3.87
2022-09-12T08:24:08.854Z,4.35
2022-09-12T08:26:55.768Z,3.72
2022-09-12T08:29:42.770Z,3.73
2022-09-12T08:32:32.967Z,3.47
2022-09-12T08:35:20.039Z,4.07
2022-09-12T08:38:08.254Z,4.32
2022-09-12T08:41:02.240Z,4.40
2022-09-12T08:43:58.193Z,3.80
2022-09-12T08:46:49.359Z,3.87
2022-09-12T08:49:37.650Z,3.30
2022-09-12T08:52:27.664Z,4.93
2022-09-12T08:55:23.552Z,4.50
2022-09-12T08:58:13.985Z,3.95
2022-09-12T09:01:04.826Z,3.53
2022-09-12T09:04:06.638Z,3.10
2022-09-12T09:06:59.764Z,3.17
2022-09-12T09:09:53.753Z,4.45
2022-09-12T09:12:48.228Z,4.80
2022-09-12T09:15:41.303Z,3.38
2022-09-12T09:18:31.778Z,4.55
2022-09-12T09:21:23.932Z,4.13
2022-09-12T09:24:16.743Z,3.95
2022-09-12T09:27:14.307Z,4.57
2022-09-12T09:30:16.557Z,4.78
2022-09-12T09:33:05.562Z,5.10
2022-09-12T09:35:56.741Z,4.03
2022-09-12T09:38:49.092Z,4.05
2022-09-12T09:41:41.885Z,4.07
2022-09-12T09:44:29.725Z,4.35
2022-09-12T09:47:18.815Z,4.32
2022-09-12T09:50:06.426Z,4.10
2022-09-12T09:52:53.730Z,4.32
2022-09-12T09:55:42.744Z,3.72
2022-09-12T09:58:31.081Z,4.05
2022-09-12T10:01:20.089Z,4.30
2022-09-12T10:04:18.794Z,3.57
2022-09-12T10:07:06.608Z,4.75
2022-09-12T10:10:06.352Z,2.80
2022-09-12T10:12:53.945Z,2.40
2022-09-12T10:15:40.696Z,3.20
2022-09-12T10:18:35.661Z,3.13
2022-09-12T10:21:30.372Z,2.30
2022-09-12T10:24:23.322Z,2.88
2022-09-12T10:27:11.675Z,3.00
2022-09-12T10:30:03.214Z,1.95
2022-09-12T10:32:51.585Z,2.05
2022-09-12T10:35:46.400Z,2.10
2022-09-12T10:38:35.434Z,2.97
2022-09-12T10:41:23.895Z,2.28
2022-09-12T10:44:17.422Z,2.45
2022-09-12T10:47:19.278Z,2.65
2022-09-12T10:50:23.274Z,2.17
2022-09-12T10:53:20.318Z,2.28
2022-09-12T10:56:11.995Z,2.05
2022-09-12T10:59:08.292Z,2.65
2022-09-12T11:01:58.343Z,1.83
2022-09-12T11:04:55.445Z,2.25
2022-09-12T11:07:44.969Z,2.40
2022-09-12T11:10:38.134Z,2.07
2022-09-12T11:13:34.645Z,2.20
2022-09-12T11:16:25.950Z,2.30
2022-09-12T11:19:21.155Z,2.13
2022-09-12T11:22:16.950Z,2.28
2022-09-12T11:25:14.533Z,2.30
2022-09-12T11:28:19.473Z,2.20
2022-09-12T11:31:16.927Z,2.30
2022-09-12T11:34:10.257Z,2.22
2022-09-12T11:37:10.401Z,2.17
2022-09-12T11:40:01.376Z,2.13
2022-09-12T11:42:49.701Z,2.65
2022-09-12T11:45:43.217Z,2.50
2022-09-12T11:48:40.262Z,1.83
2022-09-12T11:51:28.590Z,2.10
2022-09-12T11:54:17.845Z,2.65
2022-09-12T11:57:10.086Z,2.40
2022-09-12T12:00:00.992Z,1.98
2022-09-12T12:02:52.693Z,1.95
2022-09-12T12:05:44.934Z,1.92
2022-09-12T12:08:33.030Z,2.30
2022-09-12T12:11:28.849Z,1.80
2022-09-12T12:14:19.322Z,2.00
2022-09-12T12:17:06.986Z,2.25
2022-09-12T12:20:04.774Z,2.20
2022-09-12T12:22:55.769Z,1.75
2022-09-12T12:25:52.798Z,1.90
2022-09-12T12:29:03.810Z,1.67
2022-09-12T12:32:09.173Z,1.83
2022-09-12T12:35:13.860Z,1.80
2022-09-12T12:38:02.594Z,1.93
2022-09-12T12:40:50.490Z,1.53
2022-09-12T12:43:37.631Z,1.50
2022-09-12T12:46:25.746Z,1.58
2022-09-12T12:49:20.692Z,1.98
2022-09-12T12:52:07.485Z,1.98
2022-09-12T12:54:57.347Z,1.67
2022-09-12T12:57:49.931Z,1.85
2022-09-12T13:00:38.388Z,2.42
2022-09-12T13:03:30.575Z,2.30
2022-09-12T13:06:31.849Z,2.00
2022-09-12T13:09:23.199Z,2.47
2022-09-12T13:12:12.798Z,1.38
2022-09-12T13:15:00.779Z,2.22
2022-09-12T13:17:48.082Z,1.67
2022-09-12T13:20:37.792Z,1.40
2022-09-12T13:23:28.981Z,1.65
2022-09-12T13:26:28.919Z,2.17
2022-09-12T13:29:18.960Z,1.52
2022-09-12T13:32:05.807Z,1.92
2022-09-12T13:35:02.259Z,1.40
2022-09-12T13:37:52.775Z,1.08
2022-09-12T13:40:42.958Z,1.70
2022-09-12T13:43:38.091Z,1.98
2022-09-12T13:46:30.166Z,1.80
2022-09-12T13:49:21.801Z,1.70
2022-09-12T13:52:09.934Z,1.30
2022-09-12T13:54:58.329Z,1.30
2022-09-12T13:57:45.539Z,1.50
2022-09-12T14:00:35.450Z,1.35
2022-09-12T14:03:46.427Z,1.30
2022-09-12T14:06:38.104Z,1.20
2022-09-12T14:09:27.025Z,1.45
2022-09-12T14:12:22.177Z,1.00
2022-09-12T14:15:16.588Z,1.20
2022-09-12T14:18:03.976Z,1.00
2022-09-12T14:20:54.980Z,1.00
2022-09-12T14:23:43.075Z,1.37
2022-09-12T14:26:33.461Z,1.33
2022-09-12T14:29:20.455Z,1.67
2022-09-12T14:32:07.464Z,1.42
2022-09-12T14:35:08.451Z,1.92
2022-09-12T14:37:57.064Z,1.40
2022-09-12T14:40:45.791Z,1.58
2022-09-12T14:43:33.877Z,1.38
2022-09-12T14:46:24.417Z,1.70
2022-09-12T14:49:16.383Z,1.50
2022-09-12T14:52:04.590Z,1.88
2022-09-12T14:54:59.031Z,1.47
2022-09-12T14:57:45.994Z,1.27
2022-09-12T15:00:33.582Z,1.27
2022-09-12T15:03:25.267Z,1.50
2022-09-12T15:06:21.951Z,1.38
2022-09-12T15:09:10.201Z,1.75
2022-09-12T15:11:58.319Z,1.30
2022-09-12T15:14:45.154Z,1.10
2022-09-12T15:17:31.971Z,1.30
2022-09-12T15:20:19.083Z,1.20
2022-09-12T15:23:07.641Z,1.52
2022-09-12T15:25:54.832Z,1.30
2022-09-12T15:28:43.214Z,1.65
2022-09-12T15:31:31.218Z,1.60
2022-09-12T15:34:20.119Z,1.38
2022-09-12T15:37:07.927Z,1.27
2022-09-12T15:39:54.858Z,1.45
2022-09-12T15:42:42.199Z,1.33
2022-09-12T15:45:31.833Z,1.15
2022-09-12T15:48:20.588Z,1.13
2022-09-12T15:51:10.645Z,0.98
2022-09-12T15:54:00.174Z,1.27
2022-09-12T15:56:47.137Z,1.30
2022-09-12T15:59:34.447Z,1.05
2022-09-12T16:02:22.422Z,1.40
2022-09-12T16:05:13.990Z,1.33
2022-09-12T16:08:01.265Z,1.17
2022-09-12T16:10:49.149Z,0.80
2022-09-12T16:13:36.260Z,0.95
2022-09-12T16:16:23.055Z,1.13
2022-09-12T16:19:11.907Z,0.90
2022-09-12T16:21:58.948Z,1.02
2022-09-12T16:24:45.989Z,0.95
2022-09-12T16:27:34.071Z,1.20
2022-09-12T16:30:21.386Z,1.00
2022-09-12T16:33:08.545Z,0.80
2022-09-12T16:36:03.244Z,1.25
2022-09-12T16:38:51.083Z,1.30
2022-09-12T16:41:42.099Z,1.27
2022-09-12T16:44:29.063Z,1.13
2022-09-12T16:47:16.551Z,1.17
2022-09-12T16:50:03.894Z,1.65
2022-09-12T16:52:52.242Z,1.35
2022-09-12T16:55:39.691Z,1.00
2022-09-12T16:58:26.819Z,0.82
2022-09-12T17:01:15.056Z,0.90
2022-09-12T17:04:02.583Z,0.90
2022-09-12T17:06:49.468Z,1.10
2022-09-12T17:09:48.451Z,0.80
2022-09-12T17:12:35.186Z,0.82
2022-09-12T17:15:22.525Z,1.00
2022-09-12T17:18:11.932Z,0.68
2022-09-12T17:20:59.075Z,0.60
2022-09-12T17:23:49.374Z,0.73
2022-09-12T17:26:37.855Z,0.68
2022-09-12T17:29:25.058Z,0.90
2022-09-12T17:32:15.632Z,0.93
2022-09-12T17:35:04.593Z,0.57
2022-09-12T17:37:53.891Z,1.00
2022-09-12T17:40:58.877Z,0.70
2022-09-12T17:43:50.524Z,0.80
2022-09-12T17:46:50.847Z,0.93
2022-09-12T17:52:40.395Z,1.00
2022-09-12T17:55:27.467Z,0.70
2022-09-12T17:58:14.817Z,0.75
2022-09-12T18:01:33.552Z,0.90
2022-09-12T18:04:20.871Z,0.63
2022-09-12T18:07:08.400Z,0.77
2022-09-12T18:09:55.645Z,0.60
2022-09-12T18:12:43.102Z,0.77
2022-09-12T18:15:30.448Z,1.00
2022-09-12T18:18:18.927Z,1.13
2022-09-12T18:21:06.850Z,0.95
2022-09-12T18:23:53.944Z,0.85
2022-09-12T18:26:42.764Z,0.85
2022-09-12T18:29:29.600Z,0.95
2022-09-12T18:32:16.377Z,0.73
2022-09-12T18:35:05.858Z,0.55
2022-09-12T18:37:53.047Z,1.02
2022-09-12T18:40:39.903Z,0.65
2022-09-12T18:43:28.857Z,1.30
2022-09-12T18:46:16.733Z,0.95
2022-09-12T18:49:04.571Z,0.80
2022-09-12T18:51:52.939Z,0.98
2022-09-12T18:54:39.782Z,1.00
2022-09-12T18:57:26.781Z,1.00
2022-09-12T19:00:14.652Z,0.70
2022-09-12T19:03:01.386Z,1.10
2022-09-12T19:05:48.330Z,0.77
2022-09-12T19:08:37.322Z,0.85
2022-09-12T19:11:24.673Z,0.98
2022-09-12T19:14:11.746Z,0.80
2022-09-12T19:16:58.824Z,0.93
2022-09-12T19:19:51.603Z,0.80
2022-09-12T19:22:46.534Z,0.60
2022-09-12T19:25:34.931Z,0.70
2022-09-12T19:28:24.708Z,1.10
2022-09-12T19:31:13.450Z,0.90
2022-09-12T19:34:06.885Z,0.90
2022-09-12T19:36:54.547Z,0.70
2022-09-12T19:39:42.961Z,0.68
2022-09-12T19:42:32.493Z,0.80
2022-09-12T19:45:19.693Z,0.82
2022-09-12T19:48:12.135Z,0.73
2022-09-12T19:51:30.263Z,0.88
2022-09-12T19:54:46.388Z,0.97
2022-09-12T19:57:34.916Z,0.60
2022-09-12T20:00:21.730Z,0.60
2022-09-12T20:03:08.724Z,0.73
2022-09-12T20:05:55.837Z,1.00
2022-09-12T20:08:43.969Z,0.90
2022-09-12T20:11:31.323Z,0.85
2022-09-12T20:14:21.295Z,0.88
2022-09-12T20:17:08.544Z,0.90
2022-09-12T20:19:55.374Z,0.80
2022-09-12T20:22:42.309Z,0.90
2022-09-12T20:25:29.277Z,0.80
2022-09-12T20:28:16.420Z,0.80
2022-09-12T20:31:05.635Z,0.90
2022-09-12T20:33:52.550Z,0.77
2022-09-12T20:36:39.822Z,1.00
2022-09-12T20:39:26.749Z,0.75
2022-09-12T20:42:19.731Z,0.80
2022-09-12T20:45:08.728Z,0.70
2022-09-12T20:47:59.968Z,0.90
2022-09-12T20:50:47.449Z,0.85
2022-09-12T20:53:35.449Z,1.05
2022-09-12T20:56:22.685Z,0.70
2022-09-12T20:59:10.070Z,0.60
2022-09-12T21:01:56.966Z,0.55
2022-09-12T21:04:45.474Z,0.70
2022-09-12T21:07:32.805Z,0.95
2022-09-12T21:10:19.972Z,0.77
2022-09-12T21:13:06.949Z,0.60
2022-09-12T21:16:00.104Z,1.05
2022-09-12T21:18:47.017Z,0.80
2022-09-12T21:21:35.413Z,0.68
2022-09-12T21:24:22.201Z,1.00
2022-09-12T21:27:09.039Z,0.68
2022-09-12T21:29:56.524Z,1.10
2022-09-12T21:32:43.569Z,0.63
2022-09-12T21:35:31.666Z,0.70
2022-09-12T21:38:21.027Z,0.77
2022-09-12T21:41:08.918Z,0.63
2022-09-12T21:43:56.341Z,0.68
2022-09-12T21:46:43.563Z,0.47
2022-09-12T21:49:30.655Z,0.80
2022-09-12T21:52:19.252Z,1.02
2022-09-12T21:55:08.957Z,0.57
2022-09-12T21:57:56.344Z,0.70
2022-09-12T22:00:44.974Z,0.70
2022-09-12T22:03:32.214Z,0.70
2022-09-12T22:06:22.410Z,0.60
2022-09-12T22:09:16.722Z,0.85
2022-09-12T22:12:05.360Z,1.07
2022-09-12T22:14:55.948Z,1.00
2022-09-12T22:17:45.275Z,0.70
2022-09-12T22:20:32.542Z,0.60
2022-09-12T22:23:37.102Z,0.70
2022-09-12T22:26:24.347Z,1.02
2022-09-12T22:29:13.236Z,0.63
2022-09-12T22:32:00.158Z,0.70
2022-09-12T22:34:47.251Z,0.60
2022-09-12T22:37:35.335Z,0.80
2022-09-12T22:40:22.245Z,0.80
2022-09-12T22:43:09.355Z,0.70
2022-09-12T22:45:58.552Z,0.70
2022-09-12T22:48:45.652Z,0.85
2022-09-12T22:51:32.849Z,0.60
2022-09-12T22:54:19.564Z,0.90
2022-09-12T22:57:06.678Z,0.82
2022-09-12T22:59:53.461Z,1.10
2022-09-12T23:02:42.459Z,1.15
2022-09-12T23:05:29.875Z,1.00
2022-09-12T23:08:17.705Z,0.85
2022-09-12T23:11:05.848Z,0.95
2022-09-12T23:13:52.501Z,0.90
2022-09-12T23:16:41.258Z,0.75
2022-09-12T23:19:29.569Z,0.95
2022-09-12T23:22:16.691Z,0.90
2022-09-12T23:25:04.362Z,0.90
2022-09-12T23:27:51.841Z,0.90
2022-09-12T23:30:39.723Z,0.75
2022-09-12T23:33:27.281Z,0.82
2022-09-12T23:36:15.614Z,0.85
2022-09-12T23:39:02.742Z,0.85
2022-09-12T23:41:49.832Z,1.05
2022-09-12T23:44:36.879Z,0.98
2022-09-12T23:47:23.896Z,0.93
2022-09-12T23:50:11.087Z,0.53
2022-09-12T23:52:59.296Z,0.80
2022-09-12T23:55:46.502Z,1.00
2022-09-12T23:58:33.814Z,0.73
